Time;durP1;ratioP1;P1;durP2;ratioP2;P2;SDS_P1;SDS_P2;PMS_P1;PMS_P2;Temp;Humidity;BMP_temperature;BMP_pressure;BME280_temperature;BME280_humidity;BME280_pressure;Samples;Min_cycle;Max_cycle;Signal;HPM_P1;HPM_P2
2022/02/12 00:00:17;;;;;;;5.45;2.63;;;;;;;3.54;88.87;101475.75;5115493;28;20040;-76
2022/02/12 00:02:45;;;;;;;5.45;2.30;;;;;;;3.55;87.96;101480.13;5115595;28;20050;-76
2022/02/12 00:05:14;;;;;;;5.28;2.60;;;;;;;3.54;88.13;101486.28;5115441;28;20093;-76
2022/02/12 00:07:43;;;;;;;6.22;2.70;;;;;;;3.45;88.00;101490.78;5115398;28;20052;-76
2022/02/12 00:10:13;;;;;;;5.68;2.58;;;;;;;3.45;87.98;101493.41;5114918;28;20126;-76
2022/02/12 00:12:42;;;;;;;4.32;2.25;;;;;;;3.47;87.40;101482.84;5115373;28;20458;-76
2022/02/12 00:15:10;;;;;;;5.07;2.40;;;;;;;3.48;87.15;101496.94;5115264;28;20044;-76
2022/02/12 00:17:39;;;;;;;3.92;2.28;;;;;;;3.38;87.52;101491.75;5115368;28;20046;-76
2022/02/12 00:20:08;;;;;;;6.22;2.58;;;;;;;3.42;87.39;101501.38;5115517;28;20054;-77
2022/02/12 00:22:36;;;;;;;5.78;2.50;;;;;;;3.44;86.80;101510.13;5115303;28;20071;-76
2022/02/12 00:25:05;;;;;;;4.47;2.53;;;;;;;3.36;87.14;101509.34;5114930;28;20052;-75
2022/02/12 00:27:35;;;;;;;4.32;2.50;;;;;;;3.39;86.60;101511.97;5114894;28;20112;-75
2022/02/12 00:30:04;;;;;;;4.82;2.40;;;;;;;3.31;87.16;101512.94;5114831;28;20480;-75
2022/02/12 00:32:33;;;;;;;4.43;1.88;;;;;;;3.28;87.37;101503.31;5115617;28;20051;-77
2022/02/12 00:35:03;;;;;;;5.13;2.58;;;;;;;3.27;86.99;101513.84;5096633;28;20545;-76
2022/02/12 00:37:31;;;;;;;3.70;2.30;;;;;;;3.20;87.39;101505.13;5114629;28;20052;-77
2022/02/12 00:40:00;;;;;;;5.28;2.10;;;;;;;3.19;87.67;101503.41;5114426;28;20431;-76
2022/02/12 00:42:29;;;;;;;5.18;2.30;;;;;;;3.14;87.79;101510.47;5114892;28;20039;-76
2022/02/12 00:45:00;;;;;;;4.20;2.30;;;;;;;3.17;87.47;101510.41;5114427;28;20127;-76
2022/02/12 00:47:29;;;;;;;3.50;2.05;;;;;;;3.13;87.60;101519.25;5114514;28;20058;-76
2022/02/12 00:49:57;;;;;;;4.05;2.30;;;;;;;3.16;87.15;101513.94;5114362;28;20040;-76
2022/02/12 00:52:25;;;;;;;4.18;2.28;;;;;;;3.04;88.47;101532.53;5114888;28;20451;-78
2022/02/12 00:55:13;;;;;;;5.93;2.60;;;;;;;3.06;88.30;101523.72;5114105;28;20489;-78
2022/02/12 00:57:42;;;;;;;4.43;2.28;;;;;;;2.94;89.37;101515.03;5114397;28;20054;-78
2022/02/12 01:00:13;;;;;;;5.25;2.55;;;;;;;2.93;89.11;101516.81;5114243;28;20036;-79
2022/02/12 01:02:41;;;;;;;6.55;2.50;;;;;;;2.88;89.69;101516.81;5114658;28;20051;-77
2022/02/12 01:05:11;;;;;;;5.28;2.20;;;;;;;2.87;89.99;101528.25;5112465;28;20071;-77
2022/02/12 01:07:39;;;;;;;4.00;2.38;;;;;;;2.84;90.66;101532.69;5114185;28;20443;-77
2022/02/12 01:10:09;;;;;;;5.60;2.70;;;;;;;2.86;90.50;101531.78;5114072;28;20044;-76
2022/02/12 01:12:38;;;;;;;4.55;2.22;;;;;;;2.92;90.52;101540.53;5114403;28;20043;-77
2022/02/12 01:15:07;;;;;;;5.13;2.38;;;;;;;2.85;90.73;101540.59;5114097;28;20131;-77
2022/02/12 01:17:37;;;;;;;6.03;2.83;;;;;;;2.90;90.89;101551.09;5095943;28;20048;-77
2022/02/12 01:20:07;;;;;;;5.60;2.33;;;;;;;2.86;91.57;101541.47;5114066;28;20044;-77
2022/02/12 01:22:37;;;;;;;5.43;2.72;;;;;;;2.86;93.12;101547.59;5114214;28;20044;-76
2022/02/12 01:25:06;;;;;;;5.18;2.40;;;;;;;2.86;93.20;101542.34;5113932;28;20063;-77
2022/02/12 01:27:35;;;;;;;5.05;2.65;;;;;;;2.77;94.33;101547.66;5096364;28;20054;-76
2022/02/12 01:30:04;;;;;;;4.88;2.42;;;;;;;2.74;95.67;101542.44;5113734;28;20040;-77
2022/02/12 01:32:32;;;;;;;5.75;2.50;;;;;;;2.75;95.68;101546.81;5114083;28;20119;-77
2022/02/12 01:35:02;;;;;;;6.93;2.72;;;;;;;2.73;96.03;101530.16;5113993;28;20432;-77
2022/02/12 01:37:30;;;;;;;8.60;2.85;;;;;;;2.70;96.71;101543.34;5113993;28;20485;-76
2022/02/12 01:39:59;;;;;;;6.90;2.97;;;;;;;2.68;96.92;101547.75;5113418;28;20071;-77
2022/02/12 01:42:27;;;;;;;4.88;2.55;;;;;;;2.78;95.50;101551.19;5113711;28;20122;-77
2022/02/12 01:44:58;;;;;;;7.68;2.70;;;;;;;2.67;96.59;101540.72;5113717;28;20054;-82
2022/02/12 01:47:26;;;;;;;5.03;2.70;;;;;;;2.66;96.87;101560.06;5113601;28;20135;-76
2022/02/12 01:49:55;;;;;;;5.28;2.60;;;;;;;2.67;97.20;101561.81;5113704;28;20039;-75
2022/02/12 01:52:28;;;;;;;4.32;2.47;;;;;;;2.53;98.62;101561.91;5114233;28;20373;-76
2022/02/12 01:54:57;;;;;;;4.88;2.53;;;;;;;2.53;99.82;101555.75;5113299;28;20092;-83
2022/02/12 01:57:25;;;;;;;7.22;2.78;;;;;;;2.58;100.00;101561.84;5113682;28;20044;-76
2022/02/12 01:59:53;;;;;;;5.88;2.90;;;;;;;2.53;100.00;101563.66;5113635;28;20046;-75
2022/02/12 02:02:21;;;;;;;6.47;2.28;;;;;;;2.63;100.00;101565.34;5113479;28;20043;-77
2022/02/12 02:04:50;;;;;;;5.13;2.97;;;;;;;2.51;100.00;101557.50;5113800;28;20051;-76
2022/02/12 02:07:19;;;;;;;6.85;2.70;;;;;;;2.55;100.00;101567.16;5113310;28;20044;-76
2022/02/12 02:09:49;;;;;;;5.70;2.70;;;;;;;2.49;100.00;101570.69;5113214;28;20548;-76
2022/02/12 02:12:17;;;;;;;7.82;3.25;;;;;;;2.51;100.00;101568.94;5113319;28;20065;-76
2022/02/12 02:14:46;;;;;;;5.97;2.83;;;;;;;2.60;100.00;101573.25;5113611;28;20067;-76
2022/02/12 02:17:16;;;;;;;5.80;2.65;;;;;;;2.51;100.00;101570.69;5117146;28;20032;-77
2022/02/12 02:19:47;;;;;;;5.43;2.83;;;;;;;2.49;100.00;101588.25;5117733;28;20052;-76
2022/02/12 02:22:16;;;;;;;5.05;3.05;;;;;;;2.48;100.00;101586.50;5117534;28;20097;-77
2022/02/12 02:24:46;;;;;;;6.03;3.08;;;;;;;2.63;100.00;101602.25;5117416;28;20078;-78
2022/02/12 02:27:15;;;;;;;5.72;2.97;;;;;;;2.58;100.00;101598.75;5117409;28;20122;-79
2022/02/12 02:29:45;;;;;;;6.03;3.28;;;;;;;2.55;100.00;101599.63;5117841;28;20138;-78
2022/02/12 02:32:14;;;;;;;5.45;2.90;;;;;;;2.51;100.00;101603.19;5117561;28;20131;-78
2022/02/12 02:34:49;;;;;;;5.75;2.95;;;;;;;2.41;100.00;101595.31;5117521;28;20044;-78
2022/02/12 02:37:18;;;;;;;8.70;2.92;;;;;;;2.40;100.00;101598.84;5116984;28;20043;-78
2022/02/12 02:39:49;;;;;;;6.55;2.90;;;;;;;2.33;100.00;101607.69;5117442;28;20032;-77
2022/02/12 02:42:19;;;;;;;6.05;3.17;;;;;;;2.34;100.00;101599.75;5116717;28;20097;-78
2022/02/12 02:44:47;;;;;;;9.23;3.60;;;;;;;2.20;100.00;101602.44;5117068;28;20039;-76
2022/02/12 02:47:40;;;;;;;6.00;2.72;;;;;;;2.21;100.00;101598.91;5116429;28;20079;-76
2022/02/12 02:58:25;;;;;;;9.38;3.55;;;;;;;2.07;100.00;101621.81;5116703;28;20044;-78
2022/02/12 03:00:54;;;;;;;6.97;3.38;;;;;;;2.14;100.00;101634.06;5116723;28;20035;-78
2022/02/12 03:03:24;;;;;;;6.97;3.13;;;;;;;2.18;100.00;101637.56;5116303;28;20220;-77
2022/02/12 03:05:53;;;;;;;5.35;3.10;;;;;;;2.15;100.00;101641.09;5116716;28;20050;-77
2022/02/12 03:08:21;;;;;;;6.55;3.17;;;;;;;2.13;100.00;101642.84;5098162;28;20065;-77
2022/02/12 03:10:51;;;;;;;8.82;3.60;;;;;;;2.11;100.00;101644.59;5116625;28;20046;-78
2022/02/12 03:13:19;;;;;;;6.20;3.22;;;;;;;2.14;100.00;101641.09;5116401;28;20035;-77
2022/02/12 03:15:48;;;;;;;6.53;3.50;;;;;;;2.10;100.00;101645.47;5116750;28;20044;-77
2022/02/12 03:18:16;;;;;;;7.18;2.88;;;;;;;2.04;100.00;101656.03;5116247;28;20044;-76
2022/02/12 03:20:45;;;;;;;7.40;3.45;;;;;;;2.06;100.00;101662.19;5116943;28;20374;-76
2022/02/12 03:23:13;;;;;;;5.88;3.00;;;;;;;2.05;100.00;101672.72;5116362;28;20039;-77
2022/02/12 03:25:41;;;;;;;7.70;3.55;;;;;;;1.99;100.00;101668.31;5116479;28;20084;-77
2022/02/12 03:28:13;;;;;;;8.32;3.33;;;;;;;1.95;100.00;101669.22;5114997;28;20473;-77
2022/02/12 03:30:45;;;;;;;5.43;3.10;;;;;;;1.97;100.00;101678.88;5116326;28;20053;-75
2022/02/12 03:33:17;;;;;;;6.00;2.97;;;;;;;2.05;100.00;101672.72;5116121;28;20036;-76
2022/02/12 03:35:48;;;;;;;7.82;3.25;;;;;;;2.07;100.00;101673.56;5116038;28;20055;-77
2022/02/12 03:38:19;;;;;;;5.22;2.83;;;;;;;2.11;100.00;101675.31;5115730;28;20044;-78
2022/02/12 03:40:50;;;;;;;8.27;3.20;;;;;;;2.05;100.00;101678.84;5098388;28;20058;-77
2022/02/12 03:43:20;;;;;;;7.72;3.83;;;;;;;2.07;100.00;101686.75;5115647;28;20122;-78
2022/02/12 03:45:48;;;;;;;6.93;3.33;;;;;;;2.04;100.00;101679.72;5115868;28;20048;-76
2022/02/12 03:48:16;;;;;;;7.50;3.65;;;;;;;2.12;100.00;101687.59;5115656;28;20054;-76
2022/02/12 03:50:45;;;;;;;6.63;3.42;;;;;;;2.08;100.00;101686.72;5115669;28;20040;-77
2022/02/12 03:53:13;;;;;;;6.97;3.20;;;;;;;2.04;100.00;101678.84;5115336;28;20096;-77
2022/02/12 03:55:41;;;;;;;8.15;3.75;;;;;;;2.04;100.00;101686.75;5116009;28;20097;-77
2022/02/12 03:58:11;;;;;;;5.70;3.75;;;;;;;1.92;100.00;101674.47;5115449;28;20043;-77
2022/02/12 04:00:43;;;;;;;6.57;3.60;;;;;;;1.93;100.00;101685.03;5115940;28;20051;-76
2022/02/12 04:03:13;;;;;;;;;;;;;;;2.00;100.00;101685.88;5115968;28;20396;-77
2022/02/12 04:05:43;;;;;;;6.53;3.63;;;;;;;2.00;100.00;101684.09;5097441;28;19919;-76
2022/02/12 04:08:17;;;;;;;6.93;3.63;;;;;;;1.91;100.00;101689.38;5115396;28;20393;-77
2022/02/12 04:10:46;;;;;;;6.97;3.88;;;;;;;1.96;100.00;101687.63;5115584;28;20047;-76
2022/02/12 04:13:15;;;;;;;6.43;3.85;;;;;;;1.94;100.00;101692.03;5115355;28;20268;-77
2022/02/12 04:15:45;;;;;;;7.25;3.42;;;;;;;1.97;100.00;101699.03;5115618;28;20435;-77
2022/02/12 04:18:17;;;;;;;8.75;3.45;;;;;;;1.93;100.00;101698.19;5115221;28;20035;-77
2022/02/12 04:20:45;;;;;;;7.72;3.92;;;;;;;1.91;100.00;101712.19;5115420;28;20051;-76
2022/02/12 04:23:14;;;;;;;7.13;3.58;;;;;;;1.96;100.00;101707.81;5115063;28;20039;-75
2022/02/12 04:25:42;;;;;;;7.80;4.05;;;;;;;1.91;100.00;101706.94;5115303;28;20035;-76
2022/02/12 04:28:11;;;;;;;7.82;3.83;;;;;;;1.92;100.00;101719.22;5114727;28;20040;-76
2022/02/12 04:30:40;;;;;;;7.15;3.80;;;;;;;1.96;100.00;101724.47;5115258;28;20392;-76
2022/02/12 04:33:11;;;;;;;8.07;3.83;;;;;;;1.94;100.00;101720.09;5114869;28;20146;-77
2022/02/12 04:35:40;;;;;;;8.15;3.67;;;;;;;1.83;100.00;101713.97;5115652;28;20050;-76
2022/02/12 04:38:09;;;;;;;6.15;3.50;;;;;;;1.77;100.00;101713.97;5114702;28;20144;-78
2022/02/12 04:40:37;;;;;;;7.70;3.95;;;;;;;1.70;100.00;101713.97;5115045;28;20427;-77
2022/02/12 04:43:06;;;;;;;8.02;3.58;;;;;;;1.85;100.00;101721.00;5114843;28;20055;-77
2022/02/12 04:45:34;;;;;;;6.35;3.53;;;;;;;1.75;100.00;101721.00;5114834;28;20039;-82
2022/02/12 04:48:02;;;;;;;7.13;3.78;;;;;;;1.75;100.00;101719.25;5114517;28;20083;-80
2022/02/12 04:50:34;;;;;;;8.65;3.90;;;;;;;1.68;100.00;101717.50;5122144;28;20094;-80
2022/02/12 04:53:02;;;;;;;6.47;3.55;;;;;;;1.73;100.00;101716.59;5118827;28;20452;-78
2022/02/12 04:55:33;;;;;;;8.50;3.95;;;;;;;1.71;100.00;101710.47;5116487;28;20058;-76
2022/02/12 04:58:01;;;;;;;6.22;3.55;;;;;;;1.75;100.00;101713.13;5114792;28;20091;-77
2022/02/12 05:00:30;;;;;;;6.80;3.95;;;;;;;1.62;100.00;101712.22;5114392;28;20871;-76
2022/02/12 05:02:58;;;;;;;6.47;3.67;;;;;;;1.65;100.00;101722.75;5114545;28;20039;-76
2022/02/12 05:05:26;;;;;;;8.38;4.07;;;;;;;1.72;100.00;101719.22;5114391;28;20040;-76
2022/02/12 05:07:56;;;;;;;7.43;4.05;;;;;;;1.69;100.00;101729.75;5114068;28;20044;-82
2022/02/12 05:10:24;;;;;;;8.48;3.95;;;;;;;1.72;100.00;101722.72;5114983;28;20481;-75
2022/02/12 05:12:52;;;;;;;8.32;3.97;;;;;;;1.63;100.00;101724.50;5110471;28;20031;-80
2022/02/12 05:15:20;;;;;;;9.65;4.40;;;;;;;1.68;100.00;101728.00;5114096;28;20114;-79
2022/02/12 05:17:49;;;;;;;7.45;4.28;;;;;;;1.73;100.00;101737.63;5113526;28;20044;-77
2022/02/12 05:20:18;;;;;;;7.88;4.32;;;;;;;1.61;100.00;101742.91;5113409;28;20044;-79
2022/02/12 05:22:46;;;;;;;6.97;3.65;;;;;;;1.63;100.00;101746.41;5114030;28;20044;-76
2022/02/12 05:25:16;;;;;;;9.63;4.85;;;;;;;1.62;100.00;101744.66;5113780;28;20104;-80
2022/02/12 05:27:44;;;;;;;6.97;4.30;;;;;;;1.54;100.00;101741.16;5114149;28;20040;-77
2022/02/12 05:30:13;;;;;;;7.88;4.50;;;;;;;1.44;100.00;101739.38;5113894;28;20127;-80
2022/02/12 05:32:45;;;;;;;7.75;4.50;;;;;;;1.35;100.00;101744.63;5113809;28;20082;-78
2022/02/12 05:35:15;;;;;;;7.50;4.47;;;;;;;1.36;100.00;101754.31;5113794;28;20089;-79
2022/02/12 05:37:44;;;;;;;6.70;4.32;;;;;;;1.42;100.00;101764.81;5113665;28;20043;-74
2022/02/12 05:40:12;;;;;;;7.85;4.82;;;;;;;1.33;100.00;101760.41;5113749;28;20514;-74
2022/02/12 05:42:42;;;;;;;8.77;4.90;;;;;;;1.33;100.00;101764.78;5113662;28;20126;-74
2022/02/12 05:45:10;;;;;;;8.10;4.40;;;;;;;1.35;100.00;101778.81;5114135;28;20093;-75
2022/02/12 05:47:40;;;;;;;10.63;4.57;;;;;;;1.26;100.00;101778.81;5113746;28;20051;-75
2022/02/12 05:50:10;;;;;;;7.75;4.57;;;;;;;1.39;100.00;101772.72;5095052;28;20051;-74
2022/02/12 05:52:38;;;;;;;10.45;5.38;;;;;;;1.44;100.00;101781.47;5113508;28;20044;-75
2022/02/12 05:55:07;;;;;;;7.72;4.78;;;;;;;1.40;100.00;101779.72;5113598;28;20412;-75
2022/02/12 05:57:35;;;;;;;8.77;5.13;;;;;;;1.45;100.00;101777.97;5113725;28;20036;-75
2022/02/12 06:00:07;;;;;;;8.43;5.20;;;;;;;1.47;100.00;101789.38;5113800;28;20039;-74
2022/02/12 06:02:36;;;;;;;9.63;4.88;;;;;;;1.49;100.00;101790.25;5113331;28;20054;-75
2022/02/12 06:05:04;;;;;;;8.52;4.97;;;;;;;1.43;100.00;101795.47;5113850;28;20040;-74
2022/02/12 06:07:33;;;;;;;8.68;4.85;;;;;;;1.54;100.00;101804.25;5113541;28;20040;-74
2022/02/12 06:10:01;;;;;;;7.60;4.75;;;;;;;1.55;100.00;101811.31;5113653;28;20031;-74
2022/02/12 06:12:30;;;;;;;8.00;4.75;;;;;;;1.51;100.00;101806.91;5113375;28;20047;-74
2022/02/12 06:14:58;;;;;;;9.68;5.10;;;;;;;1.57;100.00;101803.41;5113654;28;20039;-75
2022/02/12 06:17:28;;;;;;;8.98;4.68;;;;;;;1.60;100.00;101813.94;5113553;28;20538;-74
2022/02/12 06:19:57;;;;;;;9.90;5.60;;;;;;;1.49;100.00;101807.78;5095384;28;20108;-74
2022/02/12 06:22:27;;;;;;;7.80;5.15;;;;;;;1.47;100.00;101813.03;5113512;28;20047;-75
2022/02/12 06:24:56;;;;;;;9.75;5.75;;;;;;;1.53;100.00;101823.56;5113738;28;20040;-75
2022/02/12 06:27:25;;;;;;;8.85;5.53;;;;;;;1.75;100.00;101826.25;5113358;28;20118;-75
2022/02/12 06:29:53;;;;;;;9.65;5.45;;;;;;;1.78;100.00;101829.75;5113465;28;20044;-74
2022/02/12 06:32:22;;;;;;;10.07;5.45;;;;;;;1.76;100.00;101838.50;5113144;28;20040;-76
2022/02/12 06:34:55;;;;;;;9.77;5.25;;;;;;;1.83;100.00;101842.88;5113494;28;20123;-74
2022/02/12 06:37:23;;;;;;;8.50;5.20;;;;;;;1.81;100.00;101844.66;5095177;28;20055;-76
2022/02/12 06:39:52;;;;;;;10.70;5.47;;;;;;;1.75;100.00;101850.78;5113435;28;20079;-75
2022/02/12 06:42:20;;;;;;;7.47;4.78;;;;;;;1.90;100.00;101844.66;5113246;28;20039;-76
2022/02/12 06:44:48;;;;;;;10.45;5.57;;;;;;;1.88;100.00;101846.41;5113168;28;20071;-76
2022/02/12 06:47:17;;;;;;;10.27;5.30;;;;;;;1.90;100.00;101850.78;5112817;28;20055;-75
2022/02/12 06:49:45;;;;;;;9.65;5.18;;;;;;;1.94;100.00;101857.84;5113268;28;20044;-75
2022/02/12 06:52:15;;;;;;;8.45;5.38;;;;;;;1.92;100.00;101854.28;5113102;28;20075;-74
2022/02/12 06:54:43;;;;;;;9.35;5.53;;;;;;;2.01;100.00;101856.06;5112747;28;20070;-75
2022/02/12 06:57:11;;;;;;;9.90;5.28;;;;;;;2.01;100.00;101853.44;5112989;28;20043;-75
2022/02/12 06:59:40;;;;;;;10.82;5.38;;;;;;;1.99;100.00;101852.56;5094564;28;20100;-74
2022/02/12 07:02:08;;;;;;;9.63;5.38;;;;;;;1.97;100.00;101851.69;5114916;28;20050;-74
2022/02/12 07:04:37;;;;;;;11.68;5.43;;;;;;;1.92;100.00;101858.69;5116506;28;20040;-73
2022/02/12 07:07:07;;;;;;;9.88;5.35;;;;;;;1.99;100.00;101863.09;5116621;28;20054;-74
2022/02/12 07:09:37;;;;;;;10.65;5.45;;;;;;;2.05;100.00;101864.84;5116256;28;20437;-75
2022/02/12 07:12:06;;;;;;;9.30;5.70;;;;;;;2.16;100.00;101881.53;5116620;28;20047;-74
2022/02/12 07:14:34;;;;;;;9.90;5.43;;;;;;;2.09;100.00;101875.38;5116349;28;20038;-76
2022/02/12 07:17:04;;;;;;;10.73;5.55;;;;;;;2.16;100.00;101887.66;5116457;28;20051;-74
2022/02/12 07:19:34;;;;;;;9.30;5.43;;;;;;;2.18;100.00;101887.66;5116312;28;20040;-76
2022/02/12 07:22:03;;;;;;;12.10;6.60;;;;;;;2.20;100.00;101893.81;5116415;28;20047;-74
2022/02/12 07:24:32;;;;;;;9.13;5.65;;;;;;;2.26;100.00;101899.06;5097937;28;20374;-74
2022/02/12 07:27:01;;;;;;;9.93;6.00;;;;;;;2.21;100.00;101899.06;5097771;28;20412;-74
2022/02/12 07:29:32;;;;;;;9.13;5.63;;;;;;;2.32;100.00;101907.00;5115974;28;20073;-76
2022/02/12 07:32:00;;;;;;;10.45;5.68;;;;;;;2.29;100.00;101902.56;5115659;28;20049;-75
2022/02/12 07:34:29;;;;;;;9.60;5.53;;;;;;;2.34;100.00;101901.72;5115827;28;20051;-76
2022/02/12 07:36:57;;;;;;;8.82;5.38;;;;;;;2.49;100.00;101899.06;5115675;28;20499;-76
2022/02/12 07:39:27;;;;;;;8.95;5.43;;;;;;;2.52;100.00;101899.06;5115936;28;20040;-76
2022/02/12 07:41:55;;;;;;;9.88;5.90;;;;;;;2.51;100.00;101907.81;5116184;28;20465;-74
2022/02/12 07:44:25;;;;;;;9.25;5.78;;;;;;;2.62;100.00;101918.38;5115739;28;20057;-79
2022/02/12 07:46:54;;;;;;;8.82;5.63;;;;;;;2.68;100.00;101910.44;5115564;28;20044;-76
2022/02/12 07:49:22;;;;;;;9.02;5.78;;;;;;;2.66;100.00;101899.03;5116224;28;20044;-74
2022/02/12 07:51:50;;;;;;;8.00;5.50;;;;;;;2.90;100.00;101906.91;5115985;28;20054;-75
2022/02/12 07:54:18;;;;;;;9.52;5.65;;;;;;;2.90;100.00;101911.31;5115911;28;20075;-75
2022/02/12 07:56:46;;;;;;;9.68;5.85;;;;;;;2.94;100.00;101913.06;5115675;28;20071;-74
2022/02/12 07:59:15;;;;;;;9.45;5.88;;;;;;;2.96;100.00;101911.28;5115878;28;20040;-75
2022/02/12 08:01:44;;;;;;;9.52;5.80;;;;;;;3.18;100.00;101907.69;5115386;28;20547;-76
2022/02/12 08:04:13;;;;;;;8.48;5.43;;;;;;;3.14;100.00;101921.78;5097490;28;20471;-75
2022/02/12 08:09:26;;;;;;;9.30;5.50;;;;;;;3.34;100.00;101926.97;5094163;28;20051;-75
2022/02/12 08:12:06;;;;;;;7.40;4.85;;;;;;;3.44;100.00;101936.63;5115542;28;20043;-75
2022/02/12 08:14:35;;;;;;;10.95;4.97;;;;;;;3.53;100.00;101930.44;5114899;28;20044;-75
2022/02/12 08:17:04;;;;;;;7.80;5.35;;;;;;;3.49;100.00;101932.22;5115540;28;20103;-75
2022/02/12 08:19:33;;;;;;;10.13;5.38;;;;;;;3.59;100.00;101940.97;5114928;28;20067;-74
2022/02/12 08:22:06;;;;;;;7.50;5.40;;;;;;;3.65;100.00;101940.91;5097611;28;20052;-75
2022/02/12 08:24:36;;;;;;;9.05;5.40;;;;;;;3.78;100.00;101945.25;5115254;28;20118;-75
2022/02/12 08:27:04;;;;;;;11.95;5.32;;;;;;;3.89;100.00;101938.16;5115096;28;20055;-75
2022/02/12 08:29:33;;;;;;;8.88;5.75;;;;;;;3.87;100.00;101939.94;5096566;28;20060;-75
2022/02/12 08:32:01;;;;;;;10.15;5.30;;;;;;;3.68;100.00;101931.25;5097157;28;20055;-74
2022/02/12 08:34:31;;;;;;;8.90;5.28;;;;;;;3.96;100.00;101942.53;5114544;28;20052;-76
2022/02/12 08:37:00;;;;;;;9.93;5.30;;;;;;;4.02;100.00;101947.75;5114887;28;20043;-75
2022/02/12 08:39:28;;;;;;;11.63;6.15;;;;;;;3.93;100.00;101939.88;5115013;28;20062;-75
2022/02/12 08:41:57;;;;;;;14.20;5.55;;;;;;;4.16;100.00;101942.38;5115179;28;20031;-75
2022/02/12 08:44:25;;;;;;;11.88;5.70;;;;;;;4.24;100.00;101947.59;5114708;28;20039;-75
2022/02/12 08:46:54;;;;;;;7.38;4.88;;;;;;;4.25;100.00;101944.09;5114117;28;20117;-75
2022/02/12 08:49:22;;;;;;;8.07;5.05;;;;;;;4.32;100.00;101954.56;5114950;28;20081;-75
2022/02/12 08:51:52;;;;;;;8.23;5.68;;;;;;;4.35;100.00;101955.47;5114661;28;20039;-75
2022/02/12 08:54:20;;;;;;;10.40;5.72;;;;;;;4.35;100.00;101953.69;5114831;28;20122;-75
2022/02/12 08:56:49;;;;;;;9.48;5.07;;;;;;;4.42;100.00;101958.03;5114347;28;20456;-75
2022/02/12 08:59:17;;;;;;;8.95;4.93;;;;;;;4.50;100.00;101966.78;5114465;28;20047;-75
2022/02/12 09:02:05;;;;;;;7.90;5.18;;;;;;;4.49;100.00;101954.47;5114820;28;20040;-74
2022/02/12 09:04:34;;;;;;;8.15;4.32;;;;;;;4.68;100.00;101955.19;5114408;28;20051;-74
2022/02/12 09:07:04;;;;;;;7.28;4.00;;;;;;;4.77;100.00;101960.38;5114299;28;20549;-74
2022/02/12 09:09:34;;;;;;;8.77;4.05;;;;;;;4.86;100.00;101956.78;5113855;28;20053;-75
2022/02/12 09:12:02;;;;;;;6.43;3.63;;;;;;;4.99;98.49;101965.47;5114370;28;20127;-74
2022/02/12 09:14:31;;;;;;;8.27;4.18;;;;;;;5.02;98.28;101963.69;5114347;28;20501;-74
2022/02/12 09:16:59;;;;;;;5.93;3.40;;;;;;;4.99;97.88;101966.34;5096173;28;20079;-75
2022/02/12 09:19:28;;;;;;;6.20;3.78;;;;;;;5.02;98.82;101955.75;5114348;28;20061;-75
2022/02/12 09:21:56;;;;;;;5.32;3.50;;;;;;;5.02;97.11;101961.03;5113973;28;20089;-75
2022/02/12 09:24:26;;;;;;;8.10;4.00;;;;;;;5.12;96.85;101972.41;5114125;28;20101;-75
2022/02/12 09:26:54;;;;;;;8.35;3.63;;;;;;;5.20;95.83;101965.22;5113206;28;20039;-75
2022/02/12 09:29:22;;;;;;;5.82;3.45;;;;;;;5.08;95.84;101966.25;5114155;28;20036;-74
2022/02/12 09:31:51;;;;;;;8.13;3.90;;;;;;;5.23;96.54;101964.34;5113839;28;20050;-75
2022/02/12 09:34:19;;;;;;;7.72;4.32;;;;;;;5.21;96.57;101964.38;5113981;28;20088;-75
2022/02/12 09:36:47;;;;;;;6.45;3.25;;;;;;;5.37;92.23;101968.56;5113706;28;20063;-75
2022/02/12 09:39:16;;;;;;;6.10;3.08;;;;;;;5.39;91.02;101971.19;5114057;28;20236;-75
2022/02/12 09:41:46;;;;;;;5.18;3.03;;;;;;;5.40;89.49;101972.94;5113712;28;20040;-74
2022/02/12 09:44:15;;;;;;;5.05;2.85;;;;;;;5.54;87.84;101970.16;5113895;28;20047;-74
2022/02/12 09:47:16;;;;;;;7.55;3.10;;;;;;;5.61;86.90;101978.00;5113162;28;20537;-73
2022/02/12 09:49:45;;;;;;;5.88;2.72;;;;;;;5.74;82.29;101984.03;5109582;28;20050;-74
2022/02/12 09:52:18;;;;;;;5.07;3.08;;;;;;;5.72;78.85;101970.81;5113231;28;20044;-74
2022/02/12 09:54:46;;;;;;;5.60;3.10;;;;;;;5.54;75.08;101971.03;5113221;28;20040;-75
2022/02/12 09:57:16;;;;;;;4.88;2.90;;;;;;;5.73;75.33;101972.56;5095277;28;20447;-75
2022/02/12 09:59:45;;;;;;;6.10;2.90;;;;;;;5.81;73.44;101971.59;5113173;28;20553;-75
2022/02/12 10:02:18;;;;;;;4.97;2.88;;;;;;;5.96;73.71;101974.03;5113533;28;20080;-74
2022/02/12 10:04:46;;;;;;;4.10;2.35;;;;;;;5.89;67.66;101978.53;5113567;28;20052;-75
2022/02/12 10:07:23;;;;;;;4.28;2.20;;;;;;;5.89;66.55;101978.53;5113765;28;20039;-74
2022/02/12 10:10:11;;;;;;;6.00;2.42;;;;;;;5.96;64.76;101977.56;5113519;28;20499;-75
2022/02/12 10:12:41;;;;;;;4.32;2.35;;;;;;;5.86;65.11;101978.56;5113576;28;20108;-75
2022/02/12 10:15:22;;;;;;;5.72;2.35;;;;;;;5.99;64.52;101976.69;5095200;28;20051;-74
2022/02/12 10:17:52;;;;;;;6.07;2.10;;;;;;;6.13;62.48;101979.13;5113367;28;20129;-74
2022/02/12 10:20:28;;;;;;;4.50;2.10;;;;;;;6.28;61.69;101987.72;5113505;28;20046;-74
2022/02/12 10:23:04;;;;;;;5.07;2.15;;;;;;;6.08;60.97;101978.28;5112990;28;20066;-74
2022/02/12 10:25:33;;;;;;;4.13;2.28;;;;;;;6.11;61.58;101972.97;5113574;28;20451;-74
2022/02/12 10:28:06;;;;;;;5.38;1.90;;;;;;;6.13;60.20;101969.38;5113659;28;20043;-75
2022/02/12 10:30:35;;;;;;;4.63;1.88;;;;;;;6.09;59.74;101965.03;5112985;28;20093;-75
2022/02/12 10:33:06;;;;;;;5.60;2.10;;;;;;;6.05;60.66;101963.31;5113245;28;20040;-75
2022/02/12 10:35:36;;;;;;;6.78;2.65;;;;;;;5.96;60.91;101956.38;5113018;28;20085;-75
2022/02/12 10:38:07;;;;;;;4.75;2.20;;;;;;;6.04;59.81;101958.94;5116493;28;20047;-75
2022/02/12 10:40:36;;;;;;;4.43;1.80;;;;;;;6.16;59.41;101964.03;5117026;28;20473;-75
2022/02/12 10:43:07;;;;;;;4.82;2.40;;;;;;;6.05;59.75;101954.50;5099004;28;20048;-74
2022/02/12 10:45:36;;;;;;;4.55;2.20;;;;;;;5.89;60.74;101944.09;5117016;28;20046;-75
2022/02/12 10:48:05;;;;;;;3.63;1.77;;;;;;;6.13;58.21;101956.13;5098399;28;20553;-75
2022/02/12 10:50:33;;;;;;;4.45;2.00;;;;;;;6.03;56.75;101954.53;5117075;28;20457;-74
2022/02/12 10:53:03;;;;;;;4.43;1.88;;;;;;;5.82;57.26;101947.72;5116833;28;20046;-74
2022/02/12 10:55:34;;;;;;;5.00;1.80;;;;;;;5.60;58.17;101947.16;5116880;28;20044;-75
2022/02/12 10:58:05;;;;;;;4.28;1.88;;;;;;;5.82;57.59;101942.44;5116956;28;20081;-75
2022/02/12 11:00:36;;;;;;;4.93;2.10;;;;;;;5.96;57.64;101940.47;5116791;28;20489;-75
2022/02/12 11:03:09;;;;;;;7.15;2.50;;;;;;;5.92;58.19;101943.22;5116754;28;20225;-75
2022/02/12 11:05:40;;;;;;;6.75;2.78;;;;;;;5.91;58.52;101938.81;5116973;28;20054;-73
2022/02/12 11:08:09;;;;;;;4.25;2.25;;;;;;;5.99;58.12;101943.13;5116896;28;20040;-73
2022/02/12 11:10:39;;;;;;;5.80;2.70;;;;;;;5.97;59.09;101933.41;5116879;28;20489;-74
2022/02/12 11:13:09;;;;;;;4.50;2.60;;;;;;;6.19;58.46;101924.25;5116856;28;20100;-75
2022/02/12 11:15:39;;;;;;;4.80;2.67;;;;;;;6.29;58.07;101933.81;5116567;28;20055;-75
2022/02/12 11:18:11;;;;;;;6.35;2.60;;;;;;;6.30;57.98;101924.97;5116562;28;20064;-75
2022/02/12 11:20:41;;;;;;;5.70;2.15;;;;;;;6.27;58.12;101926.78;5116635;28;20050;-74
2022/02/12 11:23:27;;;;;;;7.60;3.00;;;;;;;6.15;57.68;101924.31;5116559;28;20591;-75
2022/02/12 11:25:56;;;;;;;5.25;2.58;;;;;;;5.96;59.00;101926.38;5116329;28;20499;-74
2022/02/12 11:28:29;;;;;;;7.38;2.85;;;;;;;5.93;58.93;101910.53;5098005;28;20055;-74
2022/02/12 11:31:21;;;;;;;7.22;2.50;;;;;;;5.87;59.31;101913.22;5115874;28;20043;-75
2022/02/12 11:34:17;;;;;;;5.07;2.63;;;;;;;6.06;58.91;101912.09;5112070;28;20086;-74
2022/02/12 11:36:47;;;;;;;5.57;2.50;;;;;;;6.24;58.39;101921.53;5069320;28;20549;-76
2022/02/12 11:39:18;;;;;;;5.93;3.20;;;;;;;6.23;55.96;101922.44;5116321;28;20036;-74
2022/02/12 11:41:49;;;;;;;4.95;2.45;;;;;;;6.32;55.94;101915.22;5116119;28;20092;-76
2022/02/12 11:44:40;;;;;;;5.15;2.67;;;;;;;6.44;55.11;101913.25;5116043;28;20117;-75
2022/02/12 11:47:11;;;;;;;5.28;2.72;;;;;;;6.55;54.75;101916.59;5114995;28;20055;-75
2022/02/12 11:49:40;;;;;;;5.60;2.97;;;;;;;6.57;54.13;101914.81;5114924;28;20032;-74
2022/02/12 11:52:10;;;;;;;4.93;2.83;;;;;;;6.18;55.47;101909.28;5097421;28;20044;-74